createdAt,value
2022-10-17T00:02:00.125Z,17.63
2022-10-17T00:05:05.137Z,17.13
2022-10-17T00:08:08.436Z,18.67
2022-10-17T00:11:17.163Z,17.40
2022-10-17T00:14:20.351Z,18.20
2022-10-17T00:17:23.597Z,16.20
2022-10-17T00:20:30.427Z,16.93
2022-10-17T00:23:34.713Z,16.97
2022-10-17T00:26:37.929Z,17.13
2022-10-17T00:29:41.370Z,17.57
2022-10-17T00:32:44.727Z,16.60
2022-10-17T00:35:49.319Z,17.03
2022-10-17T00:38:54.162Z,16.60
2022-10-17T00:41:57.383Z,13.63
2022-10-17T00:45:06.559Z,14.37
2022-10-17T00:48:12.464Z,14.17
2022-10-17T00:51:17.977Z,12.90
2022-10-17T00:54:25.561Z,12.97
2022-10-17T00:57:31.256Z,12.80
2022-10-17T01:00:34.711Z,12.50
2022-10-17T01:03:38.105Z,12.63
2022-10-17T01:06:42.724Z,13.53
2022-10-17T01:09:48.262Z,12.63
2022-10-17T01:13:05.690Z,13.07
2022-10-17T01:16:18.164Z,11.80
2022-10-17T01:19:44.489Z,11.90
2022-10-17T01:22:56.663Z,12.80
2022-10-17T01:26:15.054Z,12.77
2022-10-17T01:29:38.840Z,11.97
2022-10-17T01:32:49.043Z,12.43
2022-10-17T01:36:01.707Z,11.93
2022-10-17T01:39:17.188Z,11.17
2022-10-17T01:42:27.003Z,11.40
2022-10-17T01:45:34.996Z,11.77
2022-10-17T01:48:45.239Z,10.23
2022-10-17T01:51:54.034Z,10.87
2022-10-17T01:55:02.867Z,11.30
2022-10-17T01:58:10.409Z,10.73
2022-10-17T02:01:14.622Z,10.63
2022-10-17T02:04:19.588Z,10.30
2022-10-17T02:07:22.808Z,10.20
2022-10-17T02:10:37.726Z,9.67
2022-10-17T02:13:55.732Z,10.07
2022-10-17T02:17:08.301Z,8.97
2022-10-17T02:20:21.590Z,9.30
2022-10-17T02:23:33.735Z,8.90
2022-10-17T02:26:42.929Z,9.23
2022-10-17T02:29:50.173Z,8.70
2022-10-17T02:33:00.989Z,8.30
2022-10-17T02:36:23.612Z,9.67
2022-10-17T02:39:30.065Z,9.57
2022-10-17T02:42:34.067Z,9.67
2022-10-17T02:45:41.664Z,9.37
2022-10-17T02:48:51.511Z,9.10
2022-10-17T02:52:03.006Z,10.50
2022-10-17T02:55:13.472Z,10.00
2022-10-17T02:58:22.600Z,9.90
2022-10-17T03:01:26.679Z,10.20
2022-10-17T03:04:29.943Z,9.97
2022-10-17T03:07:34.589Z,9.97
2022-10-17T03:10:37.769Z,9.53
2022-10-17T03:13:42.743Z,9.60
2022-10-17T03:16:46.684Z,9.57
2022-10-17T03:19:52.251Z,9.67
2022-10-17T03:22:57.134Z,9.23
2022-10-17T03:26:03.954Z,8.90
2022-10-17T03:29:07.641Z,9.43
2022-10-17T03:32:12.299Z,7.20
2022-10-17T03:35:16.103Z,8.30
2022-10-17T03:38:24.927Z,8.20
2022-10-17T03:41:28.643Z,8.20
2022-10-17T03:44:31.956Z,7.73
2022-10-17T03:47:36.163Z,7.00
2022-10-17T03:50:39.713Z,7.57
2022-10-17T03:53:45.952Z,8.03
2022-10-17T03:56:49.910Z,7.40
2022-10-17T03:59:55.668Z,8.80
2022-10-17T04:02:59.659Z,8.77
2022-10-17T04:06:05.134Z,8.10
2022-10-17T04:09:12.688Z,8.00
2022-10-17T04:12:28.776Z,8.67
2022-10-17T04:15:32.783Z,8.43
2022-10-17T04:18:36.293Z,8.10
2022-10-17T04:21:39.723Z,8.20
2022-10-17T04:24:45.989Z,8.27
2022-10-17T04:28:10.320Z,7.43
2022-10-17T04:31:16.353Z,7.63
2022-10-17T04:34:40.677Z,6.80
2022-10-17T04:37:44.101Z,8.00
2022-10-17T04:40:54.892Z,7.50
2022-10-17T04:43:58.271Z,7.53
2022-10-17T04:47:03.382Z,8.10
2022-10-17T04:50:07.644Z,7.97
2022-10-17T04:53:12.324Z,7.43
2022-10-17T04:56:18.899Z,7.50
2022-10-17T04:59:22.622Z,7.80
2022-10-17T05:02:33.733Z,8.03
2022-10-17T05:05:40.052Z,7.73
2022-10-17T05:08:44.087Z,8.37
2022-10-17T05:11:49.149Z,7.97
2022-10-17T05:14:52.530Z,8.27
2022-10-17T05:17:57.231Z,8.70
2022-10-17T05:21:04.556Z,8.83
2022-10-17T05:24:09.760Z,9.80
2022-10-17T05:27:16.282Z,9.30
2022-10-17T05:30:19.834Z,9.10
2022-10-17T05:33:25.839Z,10.30
2022-10-17T05:36:29.987Z,9.13
2022-10-17T05:39:35.070Z,9.70
2022-10-17T05:42:41.320Z,10.33
2022-10-17T05:45:45.664Z,8.47
2022-10-17T05:48:55.749Z,9.77
2022-10-17T05:51:59.227Z,9.40
2022-10-17T05:55:02.639Z,9.13
2022-10-17T05:58:07.581Z,9.50
2022-10-17T06:01:15.789Z,9.20
2022-10-17T06:04:19.319Z,9.30
2022-10-17T06:07:22.783Z,10.47
2022-10-17T06:10:26.324Z,10.80
2022-10-17T06:13:32.664Z,10.13
2022-10-17T06:16:38.215Z,10.00
2022-10-17T06:19:42.245Z,10.63
2022-10-17T06:22:45.574Z,10.60
2022-10-17T06:25:54.695Z,9.53
2022-10-17T06:28:59.600Z,9.40
2022-10-17T06:32:09.880Z,9.13
2022-10-17T06:35:18.289Z,9.57
2022-10-17T06:38:21.791Z,8.40
2022-10-17T06:41:27.560Z,9.43
2022-10-17T06:44:32.825Z,7.97
2022-10-17T06:47:54.495Z,8.90
2022-10-17T06:51:17.079Z,8.97
2022-10-17T06:54:30.851Z,7.87
2022-10-17T06:57:43.164Z,8.13
2022-10-17T07:01:20.588Z,8.63
2022-10-17T07:04:25.866Z,7.83
2022-10-17T07:07:32.187Z,8.20
2022-10-17T07:10:38.468Z,8.93
2022-10-17T07:13:44.059Z,9.20
2022-10-17T07:16:48.850Z,8.83
2022-10-17T07:19:58.453Z,9.20
2022-10-17T07:23:02.357Z,8.83
2022-10-17T07:26:08.661Z,9.40
2022-10-17T07:29:13.900Z,7.50
2022-10-17T07:32:26.892Z,8.10
2022-10-17T07:35:30.172Z,7.00
2022-10-17T07:38:33.763Z,7.87
2022-10-17T07:41:36.987Z,7.80
2022-10-17T07:44:41.328Z,7.53
2022-10-17T07:47:47.761Z,7.70
2022-10-17T07:50:52.814Z,8.00
2022-10-17T07:53:56.562Z,8.50
2022-10-17T07:56:59.922Z,7.73
2022-10-17T08:00:03.395Z,8.37
2022-10-17T08:03:17.141Z,7.90
2022-10-17T08:06:20.438Z,7.47
2022-10-17T08:09:23.872Z,7.90
2022-10-17T08:12:27.625Z,7.80
2022-10-17T08:15:32.141Z,7.53
2022-10-17T08:18:37.363Z,7.27
2022-10-17T08:21:41.634Z,6.90
2022-10-17T08:24:46.340Z,6.93
2022-10-17T08:27:49.828Z,7.73
2022-10-17T08:30:53.088Z,7.37
2022-10-17T08:33:57.707Z,7.07
2022-10-17T08:37:00.929Z,7.00
2022-10-17T08:40:04.733Z,8.40
2022-10-17T08:43:23.399Z,7.67
2022-10-17T08:46:32.629Z,7.67
2022-10-17T08:49:47.269Z,7.57
2022-10-17T08:52:53.814Z,7.87
2022-10-17T08:55:57.689Z,7.65
2022-10-17T08:59:00.973Z,8.13
2022-10-17T09:02:22.187Z,7.47
2022-10-17T09:05:36.142Z,7.40
2022-10-17T09:08:48.320Z,7.13
2022-10-17T09:12:04.275Z,6.88
2022-10-17T09:15:42.918Z,7.28
2022-10-17T09:18:54.288Z,7.93
2022-10-17T09:22:02.754Z,6.80
2022-10-17T09:25:11.933Z,6.47
2022-10-17T09:28:21.301Z,7.13
2022-10-17T09:31:27.699Z,7.18
2022-10-17T09:34:33.488Z,6.97
2022-10-17T09:37:39.197Z,5.82
2022-10-17T09:40:42.645Z,6.10
2022-10-17T09:43:47.821Z,5.75
2022-10-17T09:47:29.121Z,5.80
2022-10-17T09:50:35.504Z,5.80
2022-10-17T09:53:42.464Z,5.30
2022-10-17T09:57:00.945Z,5.43
2022-10-17T10:00:08.172Z,4.80
2022-10-17T10:03:22.673Z,4.70
2022-10-17T10:06:25.865Z,5.05
2022-10-17T10:09:34.854Z,5.10
2022-10-17T10:12:40.985Z,3.83
2022-10-17T10:15:46.046Z,3.65
2022-10-17T10:18:51.121Z,4.25
2022-10-17T10:21:57.401Z,4.32
2022-10-17T10:25:16.569Z,4.18
2022-10-17T10:28:20.117Z,3.95
2022-10-17T10:31:35.543Z,3.60
2022-10-17T10:34:42.423Z,4.07
2022-10-17T10:37:48.920Z,3.22
2022-10-17T10:40:56.636Z,3.60
2022-10-17T10:43:59.938Z,3.78
2022-10-17T10:47:26.264Z,3.63
2022-10-17T10:50:34.752Z,3.55
2022-10-17T10:53:45.618Z,3.45
2022-10-17T10:56:53.683Z,3.20
2022-10-17T11:00:02.018Z,3.17
2022-10-17T11:03:13.208Z,3.35
2022-10-17T11:06:23.177Z,3.75
2022-10-17T11:09:35.181Z,3.40
2022-10-17T11:15:58.927Z,3.22
2022-10-17T11:19:13.716Z,3.70
2022-10-17T11:22:22.059Z,3.38
2022-10-17T11:25:35.543Z,3.33
2022-10-17T11:28:40.343Z,2.92
2022-10-17T11:31:48.561Z,3.30
2022-10-17T11:34:57.442Z,3.17
2022-10-17T11:38:14.793Z,3.10
2022-10-17T11:41:22.041Z,3.40
2022-10-17T11:44:31.108Z,3.35
2022-10-17T11:47:45.417Z,2.83
2022-10-17T11:54:30.181Z,3.45
2022-10-17T11:57:53.747Z,3.08
2022-10-17T12:01:11.601Z,2.80
2022-10-17T12:04:27.491Z,2.63
2022-10-17T12:07:40.346Z,2.83
2022-10-17T12:10:50.326Z,3.15
2022-10-17T12:13:56.329Z,2.90
2022-10-17T12:17:01.716Z,2.58
2022-10-17T12:20:34.170Z,2.88
2022-10-17T12:23:39.006Z,2.55
2022-10-17T12:26:42.231Z,2.50
2022-10-17T12:29:45.441Z,2.92
2022-10-17T12:33:07.426Z,2.65
2022-10-17T12:36:49.895Z,3.13
2022-10-17T12:39:53.093Z,2.95
2022-10-17T12:42:56.330Z,2.72
2022-10-17T12:46:00.642Z,3.45
2022-10-17T12:49:22.861Z,2.40
2022-10-17T12:53:03.693Z,3.30
2022-10-17T12:56:07.748Z,2.80
2022-10-17T12:59:17.129Z,2.70
2022-10-17T13:02:23.368Z,3.30
2022-10-17T13:05:31.936Z,3.15
2022-10-17T13:08:39.089Z,3.28
2022-10-17T13:11:43.839Z,2.63
2022-10-17T13:14:49.194Z,2.92
2022-10-17T13:18:00.432Z,2.50
2022-10-17T13:21:07.468Z,2.60
2022-10-17T13:24:25.263Z,3.10
2022-10-17T13:27:30.124Z,2.33
2022-10-17T13:30:35.359Z,2.45
2022-10-17T13:33:40.179Z,2.55
2022-10-17T13:36:49.137Z,2.47
2022-10-17T13:39:55.340Z,2.40
2022-10-17T13:43:02.204Z,2.30
2022-10-17T13:46:25.416Z,2.22
2022-10-17T13:49:34.737Z,3.03
2022-10-17T13:52:39.516Z,2.45
2022-10-17T13:56:09.448Z,2.72
2022-10-17T13:59:24.047Z,2.50
2022-10-17T14:02:28.928Z,3.17
2022-10-17T14:05:32.141Z,2.60
2022-10-17T14:08:38.196Z,2.50
2022-10-17T14:11:43.059Z,2.55
2022-10-17T14:15:12.759Z,3.00
2022-10-17T14:18:21.855Z,3.35
2022-10-17T14:21:42.917Z,3.05
2022-10-17T14:24:49.188Z,4.13
2022-10-17T14:28:02.546Z,3.75
2022-10-17T14:31:33.654Z,3.92
2022-10-17T14:34:38.968Z,4.20
2022-10-17T14:37:44.947Z,3.33
2022-10-17T14:41:00.307Z,4.35
2022-10-17T14:44:16.766Z,3.38
2022-10-17T14:47:42.686Z,4.00
2022-10-17T14:51:07.906Z,3.83
2022-10-17T14:54:23.022Z,5.32
2022-10-17T14:57:41.962Z,4.97
2022-10-17T15:00:45.236Z,4.18
2022-10-17T15:03:48.448Z,5.53
2022-10-17T15:06:55.899Z,4.70
2022-10-17T15:09:59.120Z,4.50
2022-10-17T15:16:31.822Z,4.67
2022-10-17T15:19:35.008Z,3.13
2022-10-17T15:22:38.233Z,3.33
2022-10-17T15:25:41.484Z,3.37
2022-10-17T15:28:47.540Z,3.40
2022-10-17T15:31:50.843Z,3.60
2022-10-17T15:34:54.114Z,4.97
2022-10-17T15:37:57.607Z,4.60
2022-10-17T15:41:00.767Z,4.73
2022-10-17T15:44:05.561Z,5.40
2022-10-17T15:47:16.562Z,5.50
2022-10-17T15:50:20.250Z,5.00
2022-10-17T15:53:24.209Z,4.73
2022-10-17T15:56:30.310Z,4.60
2022-10-17T15:59:36.232Z,4.97
2022-10-17T16:02:39.403Z,4.97
2022-10-17T16:05:42.692Z,5.23
2022-10-17T16:08:45.981Z,4.93
2022-10-17T16:11:49.232Z,5.20
2022-10-17T16:14:53.867Z,5.67
2022-10-17T16:18:01.587Z,6.30
2022-10-17T16:21:07.551Z,6.30
2022-10-17T16:24:12.197Z,6.73
2022-10-17T16:27:15.417Z,6.10
2022-10-17T16:33:29.068Z,7.20
2022-10-17T16:36:32.244Z,10.20
2022-10-17T16:39:35.635Z,10.07
2022-10-17T16:42:38.871Z,12.90
2022-10-17T16:45:43.472Z,11.33
2022-10-17T16:48:47.535Z,8.27
2022-10-17T16:51:50.810Z,9.40
2022-10-17T16:54:54.003Z,10.33
2022-10-17T16:57:57.170Z,10.07
2022-10-17T17:01:03.706Z,9.67
2022-10-17T17:04:06.891Z,9.40
2022-10-17T17:07:10.109Z,9.97
2022-10-17T17:10:13.318Z,9.20
2022-10-17T17:13:16.583Z,10.00
2022-10-17T17:16:23.659Z,10.23
2022-10-17T17:19:26.912Z,10.73
2022-10-17T17:22:30.100Z,10.60
2022-10-17T17:25:35.802Z,10.73
2022-10-17T17:28:39.774Z,11.10
2022-10-17T17:31:44.528Z,9.87
2022-10-17T17:34:47.917Z,9.17
2022-10-17T17:37:53.846Z,8.93
2022-10-17T17:40:57.205Z,11.13
2022-10-17T17:44:01.546Z,10.77
2022-10-17T17:47:06.440Z,10.60
2022-10-17T17:50:10.158Z,10.87
2022-10-17T17:53:15.475Z,8.70
2022-10-17T17:56:20.232Z,8.73
2022-10-17T17:59:23.450Z,9.90
2022-10-17T18:02:28.369Z,10.80
2022-10-17T18:05:32.125Z,11.17
2022-10-17T18:08:35.790Z,12.53
2022-10-17T18:11:39.671Z,17.10
2022-10-17T18:14:42.823Z,15.93
2022-10-17T18:17:47.484Z,17.07
2022-10-17T18:20:50.703Z,14.73
2022-10-17T18:23:53.913Z,15.40
2022-10-17T18:26:59.938Z,14.27
2022-10-17T18:30:03.302Z,14.53
2022-10-17T18:33:07.851Z,13.07
2022-10-17T18:36:13.691Z,11.97
2022-10-17T18:39:16.842Z,13.07
2022-10-17T18:42:20.538Z,11.07
2022-10-17T18:45:23.772Z,11.17
2022-10-17T18:48:28.325Z,10.83
2022-10-17T18:51:31.642Z,10.90
2022-10-17T18:54:34.928Z,9.97
2022-10-17T18:57:38.099Z,12.67
2022-10-17T19:00:41.317Z,14.43
2022-10-17T19:03:47.432Z,10.83
2022-10-17T19:06:50.660Z,9.83
2022-10-17T19:09:53.972Z,9.63
2022-10-17T19:12:57.159Z,10.33
2022-10-17T19:16:00.390Z,10.43
2022-10-17T19:19:07.370Z,11.50
2022-10-17T19:22:10.531Z,10.53
2022-10-17T19:25:13.846Z,10.40
2022-10-17T19:28:17.064Z,12.73
2022-10-17T19:31:26.207Z,9.80
2022-10-17T19:34:31.529Z,10.37
2022-10-17T19:37:35.354Z,10.90
2022-10-17T19:40:41.903Z,9.90
2022-10-17T19:43:45.607Z,10.97
2022-10-17T19:46:49.397Z,10.27
2022-10-17T19:49:54.229Z,10.73
2022-10-17T19:52:57.732Z,10.97
2022-10-17T19:56:01.365Z,10.50
2022-10-17T19:59:05.240Z,11.13
2022-10-17T20:02:08.625Z,11.80
2022-10-17T20:05:18.453Z,11.23
2022-10-17T20:08:22.580Z,13.40
2022-10-17T20:11:27.421Z,15.27
2022-10-17T20:14:30.688Z,13.70
2022-10-17T20:20:39.406Z,13.47
2022-10-17T20:23:43.583Z,12.10
2022-10-17T20:26:47.067Z,11.83
2022-10-17T20:29:50.391Z,11.97
2022-10-17T20:32:56.524Z,11.70
2022-10-17T20:36:01.130Z,11.10
2022-10-17T20:39:05.033Z,12.40
2022-10-17T20:42:08.240Z,11.57
2022-10-17T20:45:12.346Z,12.97
2022-10-17T20:48:17.205Z,13.00
2022-10-17T20:51:22.657Z,12.03
2022-10-17T20:54:26.165Z,11.33
2022-10-17T20:57:29.621Z,12.23
2022-10-17T21:00:33.122Z,11.33
2022-10-17T21:03:39.795Z,11.13
2022-10-17T21:06:48.212Z,11.23
2022-10-17T21:09:51.579Z,11.13
2022-10-17T21:12:54.761Z,10.53
2022-10-17T21:16:06.002Z,10.87
2022-10-17T21:19:09.298Z,10.73
2022-10-17T21:22:13.903Z,11.20
2022-10-17T21:25:17.223Z,11.63
2022-10-17T21:28:20.394Z,11.77
2022-10-17T21:31:25.642Z,12.60
2022-10-17T21:34:28.931Z,11.83
2022-10-17T21:37:33.590Z,10.90
2022-10-17T21:40:36.761Z,11.13
2022-10-17T21:43:40.276Z,11.57
2022-10-17T21:46:44.288Z,11.80
2022-10-17T21:49:47.540Z,11.57
2022-10-17T21:52:52.145Z,10.17
2022-10-17T21:55:55.384Z,12.33
2022-10-17T21:58:59.827Z,10.63
2022-10-17T22:02:03.192Z,10.13
2022-10-17T22:05:07.020Z,9.20
2022-10-17T22:08:11.686Z,8.93
2022-10-17T22:11:21.586Z,9.63
2022-10-17T22:14:26.284Z,9.63
2022-10-17T22:17:29.643Z,9.53
2022-10-17T22:20:35.558Z,9.27
2022-10-17T22:23:40.371Z,8.83
2022-10-17T22:26:44.658Z,9.83
2022-10-17T22:29:47.937Z,9.50
2022-10-17T22:32:51.151Z,9.47
2022-10-17T22:35:54.556Z,9.50
2022-10-17T22:38:59.137Z,9.33
2022-10-17T22:42:02.305Z,10.93
2022-10-17T22:45:06.158Z,10.10
2022-10-17T22:48:10.384Z,10.97
2022-10-17T22:51:14.148Z,10.77
2022-10-17T22:54:18.992Z,11.60
2022-10-17T22:57:22.317Z,11.30
2022-10-17T23:00:25.497Z,11.57
2022-10-17T23:03:30.115Z,11.33
2022-10-17T23:06:33.389Z,12.00
2022-10-17T23:09:38.136Z,9.93
2022-10-17T23:12:41.447Z,9.90
2022-10-17T23:15:45.073Z,8.80
2022-10-17T23:18:48.276Z,8.83
2022-10-17T23:21:51.495Z,9.27
2022-10-17T23:24:56.121Z,9.37
2022-10-17T23:27:59.329Z,8.30
2022-10-17T23:31:10.698Z,7.43
2022-10-17T23:34:14.069Z,7.80
2022-10-17T23:37:17.292Z,7.77
2022-10-17T23:40:22.005Z,9.70
2022-10-17T23:43:26.615Z,9.77
2022-10-17T23:46:29.815Z,8.63
2022-10-17T23:49:33.052Z,8.20
2022-10-17T23:52:36.316Z,7.90
2022-10-17T23:55:40.940Z,7.63
2022-10-17T23:58:44.231Z,7.70
